createdAt,value
2018-09-02T00:00:37.428Z,12.90
2018-09-02T00:05:41.529Z,12.90
2018-09-02T00:10:45.829Z,13.00
2018-09-02T00:15:49.957Z,13.00
2018-09-02T00:20:54.040Z,13.00
2018-09-02T00:25:58.270Z,13.10
2018-09-02T00:31:02.433Z,13.00
2018-09-02T00:36:06.493Z,13.10
2018-09-02T00:41:14.637Z,13.10
2018-09-02T00:46:18.973Z,13.00
2018-09-02T00:51:23.050Z,13.00
2018-09-02T00:56:28.102Z,13.10
2018-09-02T01:01:32.507Z,13.00
2018-09-02T01:06:36.664Z,13.00
2018-09-02T01:11:40.728Z,13.00
2018-09-02T01:16:44.934Z,13.00
2018-09-02T01:21:48.974Z,13.00
2018-09-02T01:26:53.063Z,12.90
2018-09-02T01:31:57.174Z,12.90
2018-09-02T01:37:02.185Z,12.80
2018-09-02T01:42:06.645Z,12.80
2018-09-02T01:47:10.798Z,12.80
2018-09-02T01:52:14.936Z,12.70
2018-09-02T01:57:19.052Z,12.70
2018-09-02T02:02:23.235Z,12.80
2018-09-02T02:07:27.304Z,12.70
2018-09-02T02:12:31.478Z,12.80
2018-09-02T02:17:35.719Z,12.80
2018-09-02T02:22:39.941Z,12.80
2018-09-02T02:32:54.213Z,12.70
2018-09-02T02:37:58.279Z,12.80
2018-09-02T02:43:02.396Z,12.80
2018-09-02T02:48:06.534Z,12.90
2018-09-02T02:53:10.561Z,12.90
2018-09-02T02:58:14.726Z,12.80
2018-09-02T03:03:18.874Z,12.80
2018-09-02T03:08:22.945Z,12.80
2018-09-02T03:13:27.132Z,12.80
2018-09-02T03:18:32.165Z,12.90
2018-09-02T03:23:36.334Z,12.90
2018-09-02T03:28:40.509Z,12.90
2018-09-02T03:33:44.571Z,12.90
2018-09-02T03:38:48.651Z,12.90
2018-09-02T03:43:52.747Z,12.90
2018-09-02T03:48:57.007Z,12.90
2018-09-02T03:54:01.251Z,12.90
2018-09-02T03:59:05.412Z,12.90
2018-09-02T04:04:10.025Z,12.90
2018-09-02T04:09:14.906Z,12.90
2018-09-02T04:14:19.760Z,12.90
2018-09-02T04:19:23.937Z,12.80
2018-09-02T04:24:28.069Z,12.80
2018-09-02T04:29:32.181Z,12.70
2018-09-02T04:34:36.426Z,12.70
2018-09-02T04:39:40.563Z,12.70
2018-09-02T04:44:44.719Z,12.80
2018-09-02T04:49:48.863Z,12.70
2018-09-02T04:54:53.046Z,12.80
2018-09-02T04:59:57.319Z,12.80
2018-09-02T05:05:01.520Z,12.80
2018-09-02T05:10:06.447Z,12.70
2018-09-02T05:15:10.585Z,12.80
2018-09-02T05:20:14.631Z,12.90
2018-09-02T05:25:18.727Z,12.90
2018-09-02T05:30:23.910Z,13.00
2018-09-02T05:35:28.273Z,13.00
2018-09-02T05:40:32.491Z,13.10
2018-09-02T05:45:37.111Z,13.20
2018-09-02T05:50:41.858Z,13.30
2018-09-02T05:55:45.963Z,13.40
2018-09-02T06:00:51.022Z,13.40
2018-09-02T06:05:56.165Z,13.40
2018-09-02T06:11:00.280Z,13.30
2018-09-02T06:16:05.043Z,13.30
2018-09-02T06:21:09.199Z,13.40
2018-09-02T06:26:14.061Z,13.30
2018-09-02T06:31:18.132Z,13.50
2018-09-02T06:36:22.186Z,13.70
2018-09-02T06:41:26.316Z,13.70
2018-09-02T06:46:30.448Z,13.70
2018-09-02T06:51:34.637Z,13.80
2018-09-02T06:56:39.264Z,13.70
2018-09-02T07:01:43.358Z,13.90
2018-09-02T07:06:47.625Z,14.30
2018-09-02T07:11:51.710Z,14.40
2018-09-02T07:16:55.935Z,14.30
2018-09-02T07:22:01.040Z,14.10
2018-09-02T07:27:05.203Z,14.20
2018-09-02T07:32:09.282Z,14.30
2018-09-02T07:37:14.001Z,14.50
2018-09-02T07:42:18.168Z,14.60
2018-09-02T07:47:22.335Z,14.60
2018-09-02T07:52:26.468Z,14.50
2018-09-02T07:57:30.595Z,14.50
2018-09-02T08:02:34.758Z,14.60
2018-09-02T08:07:39.342Z,14.70
2018-09-02T08:12:44.279Z,14.90
2018-09-02T08:17:48.294Z,15.10
2018-09-02T08:22:52.498Z,15.20
2018-09-02T08:27:56.731Z,15.30
2018-09-02T08:33:00.851Z,15.60
2018-09-02T08:38:05.749Z,16.40
2018-09-02T08:43:09.915Z,16.90
2018-09-02T08:48:14.144Z,17.40
2018-09-02T08:53:18.237Z,17.80
2018-09-02T08:58:22.438Z,17.90
2018-09-02T09:03:27.002Z,17.80
2018-09-02T09:08:31.478Z,17.50
2018-09-02T09:13:35.370Z,17.10
2018-09-02T09:18:39.567Z,17.00
2018-09-02T09:23:43.636Z,16.60
2018-09-02T09:28:47.759Z,17.00
2018-09-02T09:33:51.857Z,17.80
2018-09-02T09:38:56.894Z,17.50
2018-09-02T09:44:00.975Z,16.90
2018-09-02T09:49:05.931Z,17.20
2018-09-02T09:54:11.059Z,17.40
2018-09-02T09:59:15.156Z,17.40
2018-09-02T10:04:19.275Z,16.90
2018-09-02T10:09:25.256Z,17.00
2018-09-02T10:14:29.457Z,17.60
2018-09-02T10:19:33.551Z,18.00
2018-09-02T10:24:37.678Z,18.10
2018-09-02T10:29:41.935Z,17.70
2018-09-02T10:34:46.050Z,18.00
2018-09-02T10:39:50.140Z,18.40
2018-09-02T10:44:54.211Z,17.90
2018-09-02T10:49:58.297Z,17.90
2018-09-02T10:55:02.427Z,18.10
2018-09-02T11:00:09.030Z,18.30
2018-09-02T11:05:13.173Z,18.10
2018-09-02T11:10:17.377Z,18.40
2018-09-02T11:15:21.569Z,18.90
2018-09-02T11:20:25.762Z,19.40
2018-09-02T11:25:29.814Z,19.30
2018-09-02T11:30:34.660Z,19.10
2018-09-02T11:35:38.880Z,19.30
2018-09-02T11:40:43.569Z,20.00
2018-09-02T11:45:47.593Z,20.10
2018-09-02T11:50:51.702Z,19.50
2018-09-02T11:55:55.761Z,19.50
2018-09-02T12:00:59.909Z,19.60
2018-09-02T12:06:04.121Z,19.10
2018-09-02T12:11:08.855Z,18.10
2018-09-02T12:16:12.925Z,17.90
2018-09-02T12:21:17.028Z,17.90
2018-09-02T12:26:21.099Z,17.50
2018-09-02T12:31:25.307Z,17.20
2018-09-02T12:36:30.104Z,17.20
2018-09-02T12:41:34.889Z,17.40
2018-09-02T12:46:38.980Z,17.50
2018-09-02T12:51:43.157Z,17.40
2018-09-02T12:56:47.402Z,17.00
2018-09-02T13:01:51.594Z,16.80
2018-09-02T13:06:56.757Z,16.60
2018-09-02T13:12:00.958Z,16.70
2018-09-02T13:17:05.321Z,16.60
2018-09-02T13:22:10.111Z,16.50
2018-09-02T13:27:14.251Z,16.40
2018-09-02T13:32:18.342Z,16.50
2018-09-02T13:37:22.460Z,16.50
2018-09-02T13:42:26.708Z,16.60
2018-09-02T13:47:30.931Z,16.50
2018-09-02T13:52:35.381Z,16.40
2018-09-02T13:57:39.531Z,16.50
2018-09-02T14:02:43.936Z,16.60
2018-09-02T14:07:48.069Z,16.50
2018-09-02T14:12:52.717Z,16.60
2018-09-02T14:17:56.847Z,16.50
2018-09-02T14:23:01.695Z,16.60
2018-09-02T14:28:05.759Z,16.60
2018-09-02T14:33:09.910Z,16.80
2018-09-02T14:38:14.241Z,16.90
2018-09-02T14:43:18.322Z,16.80
2018-09-02T14:48:22.450Z,17.00
2018-09-02T14:53:26.613Z,17.30
2018-09-02T14:58:30.850Z,17.20
2018-09-02T15:03:35.534Z,16.70
2018-09-02T15:08:40.325Z,16.60
2018-09-02T15:13:44.559Z,16.70
2018-09-02T15:18:48.723Z,16.80
2018-09-02T15:23:52.918Z,16.70
2018-09-02T15:28:57.053Z,16.80
2018-09-02T15:34:01.150Z,16.80
2018-09-02T15:39:07.346Z,17.00
2018-09-02T15:44:11.983Z,17.10
2018-09-02T15:49:16.020Z,16.90
2018-09-02T15:54:20.144Z,16.70
2018-09-02T15:59:24.615Z,16.50
2018-09-02T16:04:29.421Z,16.50
2018-09-02T16:09:34.252Z,16.70
2018-09-02T16:14:38.361Z,16.40
2018-09-02T16:19:42.485Z,16.30
2018-09-02T16:24:46.602Z,16.10
2018-09-02T16:29:50.866Z,16.20
2018-09-02T16:34:54.988Z,16.10
2018-09-02T16:39:59.037Z,16.00
2018-09-02T16:45:03.349Z,15.80
2018-09-02T16:50:07.569Z,15.80
2018-09-02T16:55:11.700Z,15.70
2018-09-02T17:00:15.815Z,15.60
2018-09-02T17:05:23.331Z,15.60
2018-09-02T17:10:27.447Z,15.50
2018-09-02T17:15:32.197Z,15.50
2018-09-02T17:20:39.951Z,15.60
2018-09-02T17:25:44.992Z,15.60
2018-09-02T17:30:49.052Z,15.60
2018-09-02T17:35:53.177Z,15.50
2018-09-02T17:40:57.217Z,15.50
2018-09-02T17:46:02.068Z,15.50
2018-09-02T17:51:06.484Z,15.40
2018-09-02T17:56:10.698Z,15.40
2018-09-02T18:01:14.909Z,15.30
2018-09-02T18:06:19.037Z,15.30
2018-09-02T18:11:23.149Z,15.30
2018-09-02T18:16:28.909Z,15.30
2018-09-02T18:21:33.666Z,15.20
2018-09-02T18:26:37.827Z,15.20
2018-09-02T18:31:42.002Z,15.20
2018-09-02T18:36:46.097Z,15.20
2018-09-02T18:41:50.221Z,15.20
2018-09-02T18:46:54.461Z,15.10
2018-09-02T18:51:58.632Z,15.10
2018-09-02T18:57:02.932Z,15.00
2018-09-02T19:02:08.362Z,14.90
2018-09-02T19:07:12.503Z,14.90
2018-09-02T19:12:16.698Z,15.10
2018-09-02T19:17:21.042Z,15.10
2018-09-02T19:22:25.256Z,15.00
2018-09-02T19:27:29.423Z,14.90
2018-09-02T19:32:33.535Z,14.80
2018-09-02T19:37:37.661Z,14.80
2018-09-02T19:42:41.749Z,14.70
2018-09-02T19:47:45.874Z,14.70
2018-09-02T19:52:50.022Z,14.70
2018-09-02T19:57:54.246Z,14.70
2018-09-02T20:02:59.025Z,14.70
2018-09-02T20:08:04.503Z,14.70
2018-09-02T20:13:08.760Z,14.70
2018-09-02T20:18:13.054Z,14.70
2018-09-02T20:23:18.044Z,14.80
2018-09-02T20:28:23.027Z,14.80
2018-09-02T20:33:27.267Z,14.80
2018-09-02T20:38:32.008Z,14.80
2018-09-02T20:43:36.208Z,14.80
2018-09-02T20:48:40.390Z,14.80
2018-09-02T20:53:45.017Z,14.80
2018-09-02T20:58:49.299Z,14.80
2018-09-02T21:03:53.468Z,14.70
2018-09-02T21:08:57.812Z,14.70
2018-09-02T21:14:01.938Z,14.70
2018-09-02T21:19:06.597Z,14.70
2018-09-02T21:24:10.778Z,14.70
2018-09-02T21:29:14.936Z,14.70
2018-09-02T21:34:19.119Z,14.70
2018-09-02T21:39:23.313Z,14.60
2018-09-02T21:44:27.441Z,14.70
2018-09-02T21:49:31.527Z,14.60
2018-09-02T21:54:36.464Z,14.50
2018-09-02T21:59:40.669Z,14.50
2018-09-02T22:04:44.924Z,14.50
2018-09-02T22:09:49.059Z,14.50
2018-09-02T22:14:53.792Z,14.40
2018-09-02T22:19:57.924Z,14.30
2018-09-02T22:25:02.407Z,14.30
2018-09-02T22:30:07.885Z,14.20
2018-09-02T22:35:12.758Z,14.10
2018-09-02T22:40:16.840Z,14.10
2018-09-02T22:45:20.963Z,14.10
2018-09-02T22:50:25.671Z,14.00
2018-09-02T22:55:29.882Z,14.10
2018-09-02T23:00:34.104Z,14.10
2018-09-02T23:05:38.222Z,14.00
2018-09-02T23:10:42.978Z,13.90
2018-09-02T23:15:48.232Z,13.80
2018-09-02T23:20:52.563Z,13.70
2018-09-02T23:25:56.897Z,13.50
2018-09-02T23:31:01.096Z,13.40
2018-09-02T23:36:05.923Z,13.30
2018-09-02T23:41:10.358Z,13.30
2018-09-02T23:46:15.220Z,13.20
2018-09-02T23:51:19.374Z,13.00
2018-09-02T23:56:23.560Z,13.00
